Time;durP1;ratioP1;P1;durP2;ratioP2;P2;SDS_P1;SDS_P2;PMS_P1;PMS_P2;Temp;Humidity;BMP_temperature;BMP_pressure;BME280_temperature;BME280_humidity;BME280_pressure;Samples;Min_cycle;Max_cycle;Signal;HPM_P1;HPM_P2
2022/09/10 00:01:16;;;;;;;17.55;11.88;;;15.30;99.90;;;;;;5063248;28;20123;-69
2022/09/10 00:03:44;;;;;;;17.88;13.55;;;15.30;99.90;;;;;;5062332;28;20585;-69
2022/09/10 00:06:11;;;;;;;17.23;12.52;;;15.30;99.90;;;;;;5072215;28;20079;-69
2022/09/10 00:08:38;;;;;;;16.88;12.95;;;15.20;99.90;;;;;;5061177;28;20645;-69
2022/09/10 00:11:09;;;;;;;15.40;11.80;;;15.20;99.90;;;;;;5069115;28;20041;-69
2022/09/10 00:13:38;;;;;;;17.33;11.77;;;15.30;99.90;;;;;;5065317;28;20045;-69
2022/09/10 00:16:06;;;;;;;20.55;12.60;;;15.30;99.90;;;;;;5065265;28;20437;-69
2022/09/10 00:18:33;;;;;;;17.38;13.07;;;15.30;99.90;;;;;;5063163;28;20130;-69
2022/09/10 00:21:01;;;;;;;21.48;13.23;;;15.30;99.90;;;;;;5063789;28;20040;-69
2022/09/10 00:23:28;;;;;;;17.67;12.88;;;15.30;99.90;;;;;;5043372;28;20119;-70
2022/09/10 00:25:55;;;;;;;19.85;12.82;;;15.30;99.90;;;;;;5063240;28;20506;-70
2022/09/10 00:28:22;;;;;;;18.00;13.88;;;15.30;99.90;;;;;;5063064;28;20114;-69
2022/09/10 00:30:50;;;;;;;20.17;15.23;;;15.30;99.90;;;;;;5064547;28;20560;-69
2022/09/10 00:33:18;;;;;;;21.95;14.32;;;15.40;99.90;;;;;;5065634;28;20132;-69
2022/09/10 00:35:44;;;;;;;16.45;13.30;;;15.30;99.90;;;;;;5061666;28;20228;-70
2022/09/10 00:38:10;;;;;;;22.17;14.57;;;15.30;99.90;;;;;;5065225;28;20142;-69
2022/09/10 00:40:37;;;;;;;20.88;15.40;;;15.30;99.90;;;;;;5064583;28;20143;-69
2022/09/10 00:43:17;;;;;;;18.92;13.70;;;15.50;99.90;;;;;;5046323;28;20047;-69
2022/09/10 00:45:44;;;;;;;19.77;14.77;;;15.30;99.90;;;;;;5062040;28;20119;-69
2022/09/10 00:48:17;;;;;;;20.10;15.02;;;15.30;99.90;;;;;;5064514;28;20669;-69
2022/09/10 00:50:46;;;;;;;23.77;16.17;;;15.30;99.90;;;;;;5065096;28;20063;-69
2022/09/10 00:53:15;;;;;;;20.17;14.95;;;15.30;99.90;;;;;;5063705;28;20048;-71
2022/09/10 00:55:45;;;;;;;21.98;15.82;;;15.30;99.90;;;;;;5063485;28;20544;-72
2022/09/10 00:58:13;;;;;;;23.65;15.20;;;15.30;99.90;;;;;;5063975;28;20045;-71
2022/09/10 01:00:40;;;;;;;22.38;15.88;;;15.30;99.90;;;;;;5060981;28;20048;-72
2022/09/10 01:03:10;;;;;;;25.50;16.63;;;15.30;99.90;;;;;;5063245;28;20052;-71
2022/09/10 01:05:37;;;;;;;21.88;15.35;;;15.30;99.90;;;;;;5062472;28;20512;-71
2022/09/10 01:08:04;;;;;;;19.50;15.52;;;15.30;99.90;;;;;;5064390;28;20128;-71
2022/09/10 01:10:42;;;;;;;22.30;16.23;;;15.30;99.90;;;;;;5063143;28;20044;-71
2022/09/10 01:13:36;;;;;;;26.83;17.38;;;15.30;99.90;;;;;;5064347;28;20043;-71
2022/09/10 01:16:28;;;;;;;23.60;17.15;;;15.40;99.90;;;;;;5056704;28;20052;-71
2022/09/10 01:19:16;;;;;;;24.50;16.33;;;15.40;99.90;;;;;;5065133;28;20055;-71
2022/09/10 01:22:10;;;;;;;25.27;18.50;;;15.40;99.90;;;;;;5046400;28;20052;-71
2022/09/10 01:24:59;;;;;;;23.55;18.33;;;15.40;99.90;;;;;;5062387;28;20040;-71
2022/09/10 01:27:40;;;;;;;25.50;18.10;;;15.30;99.90;;;;;;5079152;28;20079;-71
2022/09/10 01:30:10;;;;;;;28.63;19.80;;;15.40;99.90;;;;;;5064402;28;20550;-71
2022/09/10 01:32:50;;;;;;;26.58;18.98;;;15.40;99.90;;;;;;5064448;28;20056;-71
2022/09/10 01:35:19;;;;;;;26.20;18.27;;;15.40;99.90;;;;;;5065116;28;20041;-71
2022/09/10 01:37:56;;;;;;;22.52;17.17;;;15.40;99.90;;;;;;5046513;28;20044;-71
2022/09/10 01:40:28;;;;;;;28.30;19.50;;;15.40;99.90;;;;;;5047693;28;20131;-71
2022/09/10 01:43:00;;;;;;;28.45;19.65;;;15.40;99.90;;;;;;5044638;28;20111;-71
2022/09/10 01:45:27;;;;;;;28.73;20.17;;;15.40;99.90;;;;;;5062872;28;20423;-71
2022/09/10 01:48:33;;;;;;;28.30;20.23;;;15.40;99.90;;;;;;5063551;28;20090;-71
2022/09/10 01:51:11;;;;;;;26.08;19.50;;;15.40;99.90;;;;;;5064534;28;20064;-71
2022/09/10 01:54:02;;;;;;;31.58;20.95;;;15.40;99.90;;;;;;5063912;28;20056;-71
2022/09/10 01:56:49;;;;;;;31.93;22.43;;;15.40;99.90;;;;;;5068906;28;20149;-71
2022/09/10 01:59:34;;;;;;;29.90;22.10;;;15.40;99.90;;;;;;5046071;28;20098;-71
2022/09/10 02:02:15;;;;;;;34.22;23.27;;;15.30;99.90;;;;;;5063173;28;20075;-72
2022/09/10 02:04:42;;;;;;;37.53;24.60;;;15.30;99.90;;;;;;5067607;28;20047;-71
2022/09/10 02:07:11;;;;;;;33.15;22.48;;;15.30;99.90;;;;;;5062573;28;20489;-71
2022/09/10 02:09:37;;;;;;;32.08;23.25;;;15.30;99.90;;;;;;5063217;28;20079;-71
2022/09/10 02:12:03;;;;;;;32.33;23.13;;;15.30;99.90;;;;;;5063960;28;20097;-70
2022/09/10 02:14:29;;;;;;;35.92;24.13;;;15.30;99.90;;;;;;5066962;28;20036;-71
2022/09/10 02:16:57;;;;;;;33.22;22.60;;;15.30;99.90;;;;;;5067662;28;20067;-71
2022/09/10 02:19:25;;;;;;;34.13;24.55;;;15.30;99.90;;;;;;5066601;28;20080;-71
2022/09/10 02:21:52;;;;;;;32.42;23.73;;;15.30;99.90;;;;;;5067913;28;20090;-71
2022/09/10 02:24:18;;;;;;;31.75;23.27;;;15.20;99.90;;;;;;5048916;28;20420;-71
2022/09/10 02:26:46;;;;;;;35.92;23.92;;;15.30;99.90;;;;;;5066748;28;20048;-71
2022/09/10 02:29:14;;;;;;;34.60;24.17;;;15.30;99.90;;;;;;5066949;28;20497;-71
2022/09/10 02:31:42;;;;;;;32.80;24.05;;;15.30;99.90;;;;;;5065514;28;20325;-71
2022/09/10 02:34:09;;;;;;;32.53;24.48;;;15.20;99.90;;;;;;5048338;28;20029;-71
2022/09/10 02:36:35;;;;;;;31.90;23.48;;;15.30;99.90;;;;;;5066397;28;20113;-71
2022/09/10 02:39:03;;;;;;;33.33;24.65;;;15.30;99.90;;;;;;5067808;28;20068;-71
2022/09/10 02:41:31;;;;;;;32.85;24.80;;;15.30;99.90;;;;;;5064490;28;20037;-71
2022/09/10 02:43:57;;;;;;;32.50;24.90;;;15.30;99.90;;;;;;5048253;28;20086;-70
2022/09/10 02:46:22;;;;;;;31.00;23.60;;;15.30;99.90;;;;;;5066950;28;20048;-71
2022/09/10 02:48:48;;;;;;;32.08;25.52;;;15.30;99.90;;;;;;5065627;28;20041;-71
2022/09/10 02:51:14;;;;;;;32.92;24.63;;;15.30;99.90;;;;;;5067975;28;20087;-71
2022/09/10 02:53:39;;;;;;;37.25;25.73;;;15.20;99.90;;;;;;5066549;28;20047;-71
2022/09/10 02:56:06;;;;;;;31.70;25.02;;;15.20;99.90;;;;;;5063964;28;20489;-71
2022/09/10 02:58:32;;;;;;;32.97;24.05;;;15.20;99.90;;;;;;5066829;28;20488;-70
2022/09/10 03:01:10;;;;;;;38.60;28.50;;;15.30;99.90;;;;;;5065750;28;20039;-71
2022/09/10 03:03:36;;;;;;;37.53;26.65;;;15.20;99.90;;;;;;5065446;28;20088;-71
2022/09/10 03:06:03;;;;;;;35.88;26.17;;;15.20;99.90;;;;;;5065058;28;20501;-71
2022/09/10 03:08:29;;;;;;;34.90;24.00;;;15.20;99.90;;;;;;5065836;28;20047;-71
2022/09/10 03:10:57;;;;;;;38.42;27.50;;;15.30;99.90;;;;;;5063655;28;20048;-71
2022/09/10 03:13:27;;;;;;;35.22;25.50;;;15.20;99.90;;;;;;5068467;28;20049;-71
2022/09/10 03:15:54;;;;;;;38.53;27.30;;;15.20;99.90;;;;;;5067743;28;20052;-71
2022/09/10 03:18:22;;;;;;;37.38;26.13;;;15.20;99.90;;;;;;5066261;28;20068;-71
2022/09/10 03:20:48;;;;;;;33.38;25.10;;;15.20;99.90;;;;;;5065875;28;20139;-71
2022/09/10 03:23:14;;;;;;;32.00;25.77;;;15.20;99.90;;;;;;5065416;28;20390;-70
2022/09/10 03:25:40;;;;;;;32.17;25.13;;;15.20;99.90;;;;;;5066978;28;20122;-71
2022/09/10 03:28:06;;;;;;;34.38;24.73;;;15.20;99.90;;;;;;5069301;28;20056;-71
2022/09/10 03:30:31;;;;;;;34.75;25.33;;;15.30;99.90;;;;;;5067671;28;20314;-71
2022/09/10 03:32:57;;;;;;;31.75;24.50;;;15.20;99.90;;;;;;5065099;28;20048;-71
2022/09/10 03:35:23;;;;;;;34.38;25.95;;;15.20;99.90;;;;;;5067866;28;20534;-71
2022/09/10 03:37:49;;;;;;;37.80;26.27;;;15.30;99.90;;;;;;5066565;28;20128;-71
2022/09/10 03:40:15;;;;;;;36.30;25.55;;;15.30;99.90;;;;;;5066272;28;20132;-71
2022/09/10 03:42:41;;;;;;;32.78;25.50;;;15.20;99.90;;;;;;5047865;28;20040;-70
2022/09/10 03:45:08;;;;;;;33.10;25.70;;;15.30;99.90;;;;;;5064671;28;20552;-71
2022/09/10 03:47:36;;;;;;;39.97;27.17;;;15.20;99.90;;;;;;5064056;28;20044;-71
2022/09/10 03:50:03;;;;;;;31.90;24.00;;;15.20;99.90;;;;;;5064459;28;20127;-71
2022/09/10 03:52:28;;;;;;;36.75;26.75;;;15.20;99.90;;;;;;5054507;28;20117;-71
2022/09/10 03:54:54;;;;;;;36.15;25.23;;;15.20;99.90;;;;;;5063510;28;20044;-71
2022/09/10 03:57:21;;;;;;;35.22;26.00;;;15.20;99.90;;;;;;5065524;28;20075;-71
2022/09/10 03:59:46;;;;;;;33.83;25.98;;;15.20;99.90;;;;;;5067246;28;20038;-70
2022/09/10 04:02:13;;;;;;;35.95;24.38;;;15.30;99.90;;;;;;5064643;28;20079;-71
2022/09/10 04:04:40;;;;;;;32.15;24.90;;;15.30;99.90;;;;;;5066218;28;20041;-71
2022/09/10 04:07:05;;;;;;;39.88;27.15;;;15.30;99.90;;;;;;5046730;28;20049;-71
2022/09/10 04:09:31;;;;;;;34.78;25.17;;;15.30;99.90;;;;;;5063171;28;20040;-71
2022/09/10 04:11:58;;;;;;;40.97;26.92;;;15.30;99.90;;;;;;5064566;28;20037;-71
2022/09/10 04:14:25;;;;;;;37.50;26.75;;;15.20;99.90;;;;;;5063080;28;20489;-71
2022/09/10 04:16:51;;;;;;;34.53;25.88;;;15.30;99.90;;;;;;5059234;28;20092;-71
2022/09/10 04:19:17;;;;;;;34.53;24.77;;;15.20;99.90;;;;;;5063072;28;20084;-70
2022/09/10 04:21:43;;;;;;;34.88;25.65;;;15.30;99.90;;;;;;5060928;28;20131;-71
2022/09/10 04:24:12;;;;;;;35.47;24.35;;;15.20;99.90;;;;;;5046540;28;20466;-71
2022/09/10 04:26:38;;;;;;;35.20;25.65;;;15.20;99.90;;;;;;5047308;28;20056;-71
2022/09/10 04:29:04;;;;;;;35.08;25.17;;;15.20;99.90;;;;;;5063504;28;20076;-70
2022/09/10 04:31:29;;;;;;;34.10;26.33;;;15.20;99.90;;;;;;5063586;28;20064;-70
2022/09/10 04:33:55;;;;;;;36.58;27.25;;;15.20;99.90;;;;;;5062236;28;20427;-70
2022/09/10 04:36:21;;;;;;;39.20;26.30;;;15.20;99.90;;;;;;5063378;28;20048;-70
2022/09/10 04:38:46;;;;;;;36.45;25.92;;;15.20;99.90;;;;;;5063797;28;20386;-70
2022/09/10 04:41:14;;;;;;;35.35;25.85;;;15.20;99.90;;;;;;5063380;28;20040;-70
2022/09/10 04:43:40;;;;;;;36.80;26.50;;;15.20;99.90;;;;;;5065850;28;20659;-70
2022/09/10 04:46:06;;;;;;;38.20;25.52;;;15.20;99.90;;;;;;5060212;28;20119;-70
2022/09/10 04:48:33;;;;;;;38.42;27.20;;;15.20;99.90;;;;;;5063508;28;20505;-70
2022/09/10 04:50:59;;;;;;;36.30;26.13;;;15.20;99.90;;;;;;5058700;28;20044;-71
2022/09/10 04:53:26;;;;;;;38.53;26.65;;;15.20;99.90;;;;;;5056900;28;20055;-70
2022/09/10 04:55:53;;;;;;;36.42;26.02;;;15.10;99.90;;;;;;5065851;28;20390;-70
2022/09/10 04:58:20;;;;;;;33.08;25.60;;;15.10;99.90;;;;;;5064176;28;20525;-70
2022/09/10 05:00:46;;;;;;;33.35;26.52;;;15.20;99.90;;;;;;5063827;28;20545;-71
2022/09/10 05:03:12;;;;;;;32.90;24.35;;;15.10;99.90;;;;;;5045410;28;20051;-71
2022/09/10 05:05:38;;;;;;;36.80;23.92;;;15.10;99.90;;;;;;5063448;28;20497;-70
2022/09/10 05:08:07;;;;;;;37.78;25.02;;;15.10;99.90;;;;;;5062907;28;20085;-70
2022/09/10 05:10:34;;;;;;;37.92;26.10;;;15.10;99.90;;;;;;5062832;28;20101;-70
2022/09/10 05:13:00;;;;;;;31.92;24.15;;;15.10;99.90;;;;;;5045449;28;20044;-70
2022/09/10 05:15:27;;;;;;;34.42;24.10;;;15.10;99.90;;;;;;5046218;28;20040;-70
2022/09/10 05:17:52;;;;;;;31.52;23.25;;;15.10;99.90;;;;;;5061069;28;20041;-70
2022/09/10 05:20:19;;;;;;;30.88;23.60;;;15.10;99.90;;;;;;5056659;28;20078;-70
2022/09/10 05:22:44;;;;;;;30.92;23.52;;;15.10;99.90;;;;;;5072888;28;20040;-70
2022/09/10 05:25:10;;;;;;;33.28;23.40;;;15.10;99.90;;;;;;5041928;28;20557;-70
2022/09/10 05:27:36;;;;;;;29.35;22.52;;;15.10;99.90;;;;;;5063509;28;20040;-69
2022/09/10 05:30:03;;;;;;;30.40;22.85;;;15.10;99.90;;;;;;5057470;28;20743;-71
2022/09/10 05:32:30;;;;;;;29.70;22.77;;;15.10;99.90;;;;;;5053257;28;20047;-71
2022/09/10 05:34:55;;;;;;;30.35;22.73;;;15.10;99.90;;;;;;5059432;28;20044;-71
2022/09/10 05:37:21;;;;;;;29.63;21.80;;;15.10;99.90;;;;;;5060319;28;20451;-71
2022/09/10 05:39:47;;;;;;;29.35;22.75;;;15.10;99.90;;;;;;5065889;28;20041;-71
2022/09/10 05:42:13;;;;;;;30.65;23.60;;;15.10;99.90;;;;;;5063111;28;20224;-71
2022/09/10 05:44:40;;;;;;;32.15;22.48;;;15.10;99.90;;;;;;5063823;28;20047;-71
2022/09/10 05:47:09;;;;;;;30.63;22.02;;;15.10;99.90;;;;;;5065346;28;20044;-71
2022/09/10 05:49:36;;;;;;;29.77;22.35;;;15.20;99.90;;;;;;5063349;28;20036;-70
2022/09/10 05:52:01;;;;;;;29.92;24.02;;;15.20;99.90;;;;;;5057686;28;20036;-70
2022/09/10 05:54:27;;;;;;;35.30;23.25;;;15.20;99.90;;;;;;5075967;28;20044;-71
2022/09/10 05:56:53;;;;;;;30.05;22.50;;;15.20;99.90;;;;;;5063702;28;20055;-71
2022/09/10 05:59:19;;;;;;;28.55;21.92;;;15.20;99.90;;;;;;5067094;28;20044;-71
2022/09/10 06:01:45;;;;;;;31.92;22.60;;;15.20;99.90;;;;;;5057775;28;20036;-71
2022/09/10 06:04:10;;;;;;;32.72;22.42;;;15.30;99.90;;;;;;5064836;28;20048;-71
2022/09/10 06:06:36;;;;;;;32.88;22.30;;;15.20;99.90;;;;;;5065643;28;20076;-70
2022/09/10 06:09:02;;;;;;;28.92;21.95;;;15.30;99.90;;;;;;5067182;28;20040;-71
2022/09/10 06:11:28;;;;;;;28.42;21.45;;;15.20;99.90;;;;;;5065683;28;20049;-70
2022/09/10 06:13:54;;;;;;;32.40;20.48;;;15.30;99.90;;;;;;5063537;28;20059;-70
2022/09/10 06:16:20;;;;;;;29.77;21.45;;;15.30;99.90;;;;;;5064401;28;20575;-71
2022/09/10 06:18:45;;;;;;;32.03;21.20;;;15.20;99.90;;;;;;5054737;28;20079;-70
2022/09/10 06:21:14;;;;;;;28.95;21.42;;;15.30;99.90;;;;;;5058371;28;20045;-71
2022/09/10 06:23:40;;;;;;;27.33;21.17;;;15.30;99.90;;;;;;5057413;28;20040;-70
2022/09/10 06:26:09;;;;;;;33.22;21.20;;;15.30;99.90;;;;;;5062103;28;20090;-70
2022/09/10 06:28:35;;;;;;;27.75;20.48;;;15.30;99.90;;;;;;5058654;28;20493;-71
2022/09/10 06:31:04;;;;;;;29.27;21.10;;;15.30;99.90;;;;;;5055877;28;20047;-71
2022/09/10 06:33:31;;;;;;;28.83;20.42;;;15.30;99.90;;;;;;5061755;28;20461;-70
2022/09/10 06:35:58;;;;;;;27.63;20.65;;;15.40;99.90;;;;;;5062373;28;20043;-70
2022/09/10 06:38:28;;;;;;;27.45;20.83;;;15.40;99.90;;;;;;5066400;28;20068;-70
2022/09/10 06:40:59;;;;;;;25.67;20.13;;;15.50;99.90;;;;;;5063566;28;20036;-70
2022/09/10 06:43:26;;;;;;;31.63;21.00;;;15.40;99.90;;;;;;5048119;28;20120;-71
2022/09/10 06:45:53;;;;;;;32.55;21.17;;;15.40;99.90;;;;;;5059152;28;20104;-70
2022/09/10 06:48:20;;;;;;;30.15;20.17;;;15.50;99.90;;;;;;5060986;28;20123;-71
2022/09/10 06:50:54;;;;;;;34.08;20.55;;;15.50;99.90;;;;;;5032498;28;20048;-70
2022/09/10 06:53:21;;;;;;;32.17;19.42;;;15.50;99.90;;;;;;5041221;28;20045;-71
2022/09/10 06:55:51;;;;;;;25.13;18.92;;;15.40;99.90;;;;;;5073694;28;20064;-71
2022/09/10 06:58:22;;;;;;;29.87;20.87;;;15.50;99.90;;;;;;5054716;28;20119;-71
2022/09/10 07:00:49;;;;;;;31.65;22.42;;;15.50;99.90;;;;;;5054943;28;20040;-70
2022/09/10 07:03:20;;;;;;;31.35;21.60;;;15.50;99.90;;;;;;5057732;28;20087;-70
2022/09/10 07:05:46;;;;;;;28.30;20.75;;;15.50;99.90;;;;;;5057723;28;20056;-71
2022/09/10 07:08:14;;;;;;;28.70;20.88;;;15.50;99.90;;;;;;5048146;28;20082;-71
2022/09/10 07:10:42;;;;;;;28.80;20.58;;;15.50;99.90;;;;;;5048630;28;20953;-70
2022/09/10 07:13:08;;;;;;;30.52;21.67;;;15.60;99.90;;;;;;5057286;28;20127;-71
2022/09/10 07:15:35;;;;;;;34.17;21.75;;;15.60;99.90;;;;;;5061019;28;20529;-70
2022/09/10 07:18:01;;;;;;;30.63;21.85;;;15.60;99.90;;;;;;5053291;28;20048;-70
2022/09/10 07:20:28;;;;;;;28.20;21.50;;;15.60;99.90;;;;;;5070436;28;20748;-71
2022/09/10 07:22:58;;;;;;;33.70;23.38;;;15.60;99.90;;;;;;5072272;28;20428;-71
2022/09/10 07:25:25;;;;;;;33.83;22.13;;;15.60;99.90;;;;;;5040086;28;20071;-72
2022/09/10 07:27:51;;;;;;;30.83;22.45;;;15.60;99.90;;;;;;5056927;28;20044;-71
2022/09/10 07:30:18;;;;;;;34.05;22.67;;;15.60;99.90;;;;;;5056123;28;20540;-70
2022/09/10 07:32:47;;;;;;;32.72;20.88;;;15.70;99.90;;;;;;5055268;28;20041;-70
2022/09/10 07:35:13;;;;;;;30.38;20.58;;;15.70;99.90;;;;;;5061046;28;20235;-71
2022/09/10 07:37:40;;;;;;;32.60;22.15;;;15.70;99.90;;;;;;5041133;28;20067;-70
2022/09/10 07:40:07;;;;;;;29.05;19.65;;;15.70;99.90;;;;;;5057969;28;20044;-71
2022/09/10 07:42:34;;;;;;;32.75;21.02;;;15.80;99.90;;;;;;5057384;28;20032;-70
2022/09/10 07:45:00;;;;;;;28.60;19.73;;;15.80;99.90;;;;;;5060568;28;20703;-70
2022/09/10 07:47:26;;;;;;;34.60;21.25;;;15.80;99.90;;;;;;5063697;28;20040;-71
2022/09/10 07:49:52;;;;;;;34.67;21.20;;;15.80;99.90;;;;;;5062017;28;20068;-70
2022/09/10 07:52:17;;;;;;;30.05;20.98;;;15.90;99.90;;;;;;5058662;28;20048;-71
2022/09/10 07:54:43;;;;;;;31.10;20.00;;;15.90;99.90;;;;;;5064547;28;20369;-71
2022/09/10 07:57:09;;;;;;;30.63;20.55;;;15.90;99.90;;;;;;5065835;28;20048;-69
2022/09/10 07:59:34;;;;;;;36.10;22.38;;;15.90;99.90;;;;;;5065324;28;20143;-69
2022/09/10 08:02:00;;;;;;;32.55;19.95;;;15.90;99.90;;;;;;5065815;28;21285;-70
2022/09/10 08:04:30;;;;;;;31.40;19.92;;;16.00;99.90;;;;;;5069117;28;20028;-70
2022/09/10 08:06:57;;;;;;;40.42;22.05;;;16.00;99.90;;;;;;5067601;28;20060;-69
2022/09/10 08:09:24;;;;;;;31.05;19.67;;;16.00;99.90;;;;;;5046185;28;20048;-70
2022/09/10 08:11:50;;;;;;;34.20;20.13;;;16.00;99.90;;;;;;5070426;28;20143;-70
2022/09/10 08:14:16;;;;;;;31.15;20.63;;;16.10;99.90;;;;;;5067505;28;20049;-70
2022/09/10 08:16:41;;;;;;;32.30;21.02;;;16.10;99.90;;;;;;5064444;28;20421;-69
2022/09/10 08:19:08;;;;;;;30.45;20.02;;;16.10;99.90;;;;;;5049046;28;20492;-69
2022/09/10 08:21:35;;;;;;;27.25;19.00;;;16.20;99.90;;;;;;5064463;28;20506;-70
2022/09/10 08:24:01;;;;;;;30.17;19.73;;;16.20;99.90;;;;;;5063541;28;20048;-69
2022/09/10 08:26:28;;;;;;;31.23;19.58;;;16.20;99.90;;;;;;5060757;28;20076;-70
2022/09/10 08:28:56;;;;;;;28.50;19.90;;;16.20;99.90;;;;;;5064702;28;20048;-70
2022/09/10 08:31:25;;;;;;;31.35;19.77;;;16.20;99.90;;;;;;5065320;28;20104;-70
2022/09/10 08:33:52;;;;;;;33.95;21.33;;;16.20;99.90;;;;;;5060108;28;20151;-70
2022/09/10 08:36:20;;;;;;;27.70;19.05;;;16.20;99.90;;;;;;5063232;28;20041;-69
2022/09/10 08:38:47;;;;;;;27.15;18.50;;;16.30;99.90;;;;;;5061713;28;20064;-69
2022/09/10 08:41:52;;;;;;;28.63;19.27;;;16.30;99.90;;;;;;5060036;28;20048;-70
2022/09/10 08:44:33;;;;;;;31.38;20.02;;;16.30;99.90;;;;;;4970279;28;20046;-70
2022/09/10 08:47:13;;;;;;;26.88;19.13;;;16.30;99.90;;;;;;5053607;28;20843;-69
2022/09/10 08:49:47;;;;;;;28.65;18.95;;;16.30;99.90;;;;;;5055858;28;20532;-70
2022/09/10 08:52:37;;;;;;;25.70;18.02;;;16.30;99.90;;;;;;5061449;28;20098;-70
2022/09/10 08:55:15;;;;;;;31.77;18.85;;;16.30;99.90;;;;;;5056179;28;20048;-70
2022/09/10 08:57:44;;;;;;;30.48;18.70;;;16.30;99.90;;;;;;5061006;28;20041;-70
2022/09/10 09:00:22;;;;;;;28.85;19.02;;;16.40;99.90;;;;;;5056313;28;20093;-70
2022/09/10 09:02:58;;;;;;;28.23;18.42;;;16.30;99.90;;;;;;5076257;28;20049;-69
2022/09/10 09:05:25;;;;;;;32.10;18.02;;;16.30;99.90;;;;;;5070788;28;20644;-70
2022/09/10 09:07:51;;;;;;;32.58;18.88;;;16.40;99.90;;;;;;5052960;28;20244;-70
2022/09/10 09:10:23;;;;;;;31.58;18.42;;;16.40;99.90;;;;;;5055950;28;20049;-69
2022/09/10 09:13:21;;;;;;;28.80;17.95;;;16.30;99.90;;;;;;5057774;28;20035;-69
2022/09/10 09:15:52;;;;;;;28.70;18.10;;;16.50;99.90;;;;;;5055585;28;20063;-70
2022/09/10 09:18:42;;;;;;;29.25;17.58;;;16.40;99.90;;;;;;5056938;28;20386;-70
2022/09/10 09:21:25;;;;;;;27.77;17.48;;;16.40;99.90;;;;;;5040387;28;20036;-70
2022/09/10 09:23:56;;;;;;;29.23;18.25;;;16.40;99.90;;;;;;5063711;28;20497;-70
2022/09/10 09:26:34;;;;;;;26.30;17.38;;;16.40;99.90;;;;;;5064223;28;20044;-70
2022/09/10 09:29:13;;;;;;;28.15;16.95;;;16.40;99.90;;;;;;5058421;28;20063;-70
2022/09/10 09:31:56;;;;;;;25.05;16.70;;;16.40;99.90;;;;;;5065719;28;20052;-70
2022/09/10 09:34:32;;;;;;;26.80;17.50;;;16.40;99.90;;;;;;5067165;28;20041;-69
2022/09/10 09:37:02;;;;;;;28.90;17.38;;;16.50;99.90;;;;;;5066364;28;20052;-70
2022/09/10 09:39:44;;;;;;;29.63;17.95;;;16.50;99.90;;;;;;5059951;28;20409;-70
2022/09/10 09:42:38;;;;;;;25.35;16.75;;;16.50;99.90;;;;;;5060666;28;20044;-70
2022/09/10 09:45:48;;;;;;;23.77;15.90;;;16.50;99.90;;;;;;5059595;28;20071;-70
2022/09/10 09:48:16;;;;;;;23.85;15.52;;;16.50;99.90;;;;;;4985053;28;20137;-70
2022/09/10 09:50:45;;;;;;;21.25;14.65;;;16.50;99.90;;;;;;5002137;28;20161;-70
2022/09/10 09:53:24;;;;;;;24.52;15.65;;;16.50;99.90;;;;;;5031305;28;20147;-70
2022/09/10 09:56:21;;;;;;;22.52;14.30;;;16.60;99.90;;;;;;5063885;28;20350;-70
2022/09/10 09:58:49;;;;;;;21.70;15.68;;;16.60;99.90;;;;;;5051748;28;20095;-70
2022/09/10 10:01:25;;;;;;;25.45;15.40;;;16.60;99.90;;;;;;5043368;28;20409;-70
2022/09/10 10:03:57;;;;;;;24.65;14.30;;;16.60;99.90;;;;;;5062702;28;20140;-70
2022/09/10 10:06:44;;;;;;;23.00;14.40;;;16.60;99.90;;;;;;5061871;28;20048;-70
2022/09/10 10:09:21;;;;;;;19.77;13.27;;;16.70;99.90;;;;;;5061738;28;20052;-70
2022/09/10 10:12:18;;;;;;;21.88;14.27;;;16.70;99.90;;;;;;5068019;28;20037;-70
2022/09/10 10:14:43;;;;;;;21.35;13.75;;;16.70;99.90;;;;;;5046848;28;20067;-71
2022/09/10 10:17:37;;;;;;;24.83;14.40;;;16.80;99.90;;;;;;5063127;28;20044;-70
2022/09/10 10:20:09;;;;;;;23.45;14.30;;;16.80;99.90;;;;;;5063451;28;20080;-71
2022/09/10 10:22:36;;;;;;;19.33;13.25;;;16.90;99.90;;;;;;5065521;28;20044;-70
2022/09/10 10:25:05;;;;;;;21.40;13.38;;;16.90;99.90;;;;;;5059904;28;20037;-70
2022/09/10 10:27:41;;;;;;;22.50;13.35;;;16.90;99.90;;;;;;5064977;28;20097;-69
2022/09/10 10:30:17;;;;;;;24.25;14.25;;;16.90;99.90;;;;;;5076100;28;20037;-70
2022/09/10 10:32:52;;;;;;;21.13;14.70;;;16.90;99.90;;;;;;5072992;28;20540;-70
2022/09/10 10:35:18;;;;;;;24.55;15.52;;;17.00;99.90;;;;;;5066682;28;20044;-70
2022/09/10 10:38:02;;;;;;;22.75;14.32;;;17.00;99.90;;;;;;5067042;28;20057;-70
2022/09/10 10:40:35;;;;;;;26.27;16.13;;;17.00;99.90;;;;;;5066085;28;20052;-70
2022/09/10 10:43:35;;;;;;;23.45;14.93;;;17.00;99.90;;;;;;5049783;28;20040;-70
2022/09/10 10:46:01;;;;;;;23.52;16.20;;;17.10;99.90;;;;;;5071819;28;20040;-70
2022/09/10 10:48:51;;;;;;;24.20;15.40;;;17.10;99.90;;;;;;5067183;28;20044;-70
2022/09/10 10:51:48;;;;;;;21.37;14.53;;;17.10;99.90;;;;;;5050554;28;20053;-70
2022/09/10 10:54:28;;;;;;;23.15;14.50;;;17.20;99.90;;;;;;5065987;28;20044;-70
2022/09/10 10:57:05;;;;;;;22.48;14.88;;;17.20;99.90;;;;;;5064884;28;20059;-70
2022/09/10 10:59:52;;;;;;;23.80;14.02;;;17.30;99.90;;;;;;5067546;28;20046;-70
2022/09/10 11:03:15;;;;;;;20.67;13.43;;;17.30;99.90;;;;;;5065852;28;20055;-71
2022/09/10 11:05:48;;;;;;;25.67;15.05;;;17.40;99.90;;;;;;4950738;28;20034;-70
2022/09/10 11:08:24;;;;;;;27.23;15.02;;;17.40;99.90;;;;;;4973513;28;20511;-71
2022/09/10 11:11:04;;;;;;;27.98;14.63;;;17.40;99.90;;;;;;5017224;28;20056;-71
2022/09/10 11:13:39;;;;;;;26.20;15.73;;;17.40;99.90;;;;;;5068114;28;20032;-71
2022/09/10 11:16:28;;;;;;;26.20;15.82;;;17.40;99.90;;;;;;5065574;28;20132;-71
2022/09/10 11:19:37;;;;;;;23.63;15.25;;;17.40;99.90;;;;;;5070917;28;20060;-71
2022/09/10 11:22:14;;;;;;;28.02;15.68;;;17.50;99.90;;;;;;4953683;28;20070;-71
2022/09/10 11:24:59;;;;;;;27.67;15.75;;;17.50;99.90;;;;;;5059567;28;20059;-71
2022/09/10 11:27:40;;;;;;;21.17;15.45;;;17.50;99.90;;;;;;5067107;28;20071;-71
2022/09/10 11:30:11;;;;;;;24.10;14.95;;;17.60;99.90;;;;;;5048911;28;20135;-71
2022/09/10 11:32:39;;;;;;;22.50;13.77;;;17.60;99.90;;;;;;5067152;28;20446;-70
2022/09/10 11:35:10;;;;;;;24.63;14.35;;;17.60;99.90;;;;;;5065767;28;20405;-71
2022/09/10 11:37:55;;;;;;;22.50;14.15;;;17.60;99.90;;;;;;5065628;28;20036;-71
2022/09/10 11:40:30;;;;;;;24.42;15.27;;;17.60;99.90;;;;;;5065289;28;20048;-71
2022/09/10 11:43:02;;;;;;;24.50;15.60;;;17.70;99.90;;;;;;5064278;28;20074;-74
2022/09/10 11:45:42;;;;;;;22.80;14.88;;;17.70;99.90;;;;;;5065254;28;20094;-71
2022/09/10 11:48:40;;;;;;;21.58;15.40;;;17.70;99.90;;;;;;5063685;28;20047;-70
2022/09/10 11:51:29;;;;;;;22.67;14.25;;;17.70;99.90;;;;;;4995265;28;20099;-71
2022/09/10 11:53:55;;;;;;;22.40;14.55;;;17.80;99.90;;;;;;5066258;28;20074;-71
2022/09/10 11:56:41;;;;;;;20.00;12.55;;;17.90;99.90;;;;;;5066524;28;20116;-71
2022/09/10 11:59:41;;;;;;;21.73;13.95;;;17.90;99.90;;;;;;5066286;28;20060;-71
2022/09/10 12:02:15;;;;;;;20.60;12.27;;;18.00;99.90;;;;;;5065900;28;20076;-71
2022/09/10 12:04:44;;;;;;;19.52;13.10;;;18.10;99.90;;;;;;5066142;28;20044;-70
2022/09/10 12:07:18;;;;;;;17.02;12.45;;;18.20;99.90;;;;;;5066123;28;20032;-71
2022/09/10 12:10:06;;;;;;;20.52;11.48;;;18.30;99.90;;;;;;5065768;28;20051;-71
2022/09/10 12:12:48;;;;;;;19.00;12.07;;;18.30;99.90;;;;;;5063644;28;20101;-71
2022/09/10 12:15:19;;;;;;;16.15;12.13;;;18.40;99.90;;;;;;5046137;28;20161;-71
2022/09/10 12:18:11;;;;;;;16.77;11.20;;;18.40;99.90;;;;;;5064509;28;20537;-71
2022/09/10 12:20:47;;;;;;;16.25;11.48;;;18.40;99.90;;;;;;5065665;28;20078;-71
2022/09/10 12:23:18;;;;;;;14.52;10.00;;;18.40;99.90;;;;;;5064770;28;20041;-71
2022/09/10 12:25:44;;;;;;;14.60;9.77;;;18.50;99.90;;;;;;5066276;28;20715;-71
2022/09/10 12:28:40;;;;;;;15.15;10.32;;;18.40;99.90;;;;;;5065580;28;20122;-71
2022/09/10 12:31:10;;;;;;;17.23;9.25;;;18.50;99.90;;;;;;5044857;28;20043;-71
2022/09/10 12:33:45;;;;;;;12.02;7.65;;;18.50;99.90;;;;;;5064586;28;20119;-71
2022/09/10 12:36:13;;;;;;;10.85;7.32;;;18.50;99.90;;;;;;5066106;28;20044;-71
2022/09/10 12:39:15;;;;;;;12.30;7.88;;;18.60;99.90;;;;;;5064959;28;20046;-71
2022/09/10 12:41:40;;;;;;;9.95;6.80;;;18.60;99.90;;;;;;5065491;28;20044;-71
2022/09/10 12:44:33;;;;;;;12.65;7.10;;;18.70;99.90;;;;;;5064302;28;20049;-71
2022/09/10 12:47:17;;;;;;;12.70;7.20;;;18.70;99.90;;;;;;5045074;28;20044;-71
2022/09/10 12:50:08;;;;;;;14.60;8.20;;;18.80;99.90;;;;;;5065299;28;20397;-71
2022/09/10 12:52:52;;;;;;;13.95;8.73;;;18.90;99.90;;;;;;5053834;28;20049;-71